sensor_id;sensor_type;location;lat;lon;timestamp;pressure;altitude;pressure_sealevel;temperature;humidity
54459;BME280;40368;49.350;8.152;2022-08-19T00:00:29;997.6;;;27.39;43.8
54459;BME280;40368;49.350;8.152;2022-08-19T00:01:06;997.6;;;27.37;43.58
54459;BME280;40368;49.350;8.152;2022-08-19T00:02:20;997.7;;;27.43;43.79
54459;BME280;40368;49.350;8.152;2022-08-19T00:02:57;997.6;;;27.42;43.79
54459;BME280;40368;49.350;8.152;2022-08-19T00:04:13;997.6;;;27.44;43.71
54459;BME280;40368;49.350;8.152;2022-08-19T00:05:26;997.6;;;27.43;43.93
54459;BME280;40368;49.350;8.152;2022-08-19T00:06:03;997.6;;;27.46;43.47
54459;BME280;40368;49.350;8.152;2022-08-19T00:07:17;997.6;;;27.31;43.97
54459;BME280;40368;49.350;8.152;2022-08-19T00:07:54;997.6;;;27.35;44.15
54459;BME280;40368;49.350;8.152;2022-08-19T00:09:09;997.6;;;27.31;44.11
54459;BME280;40368;49.350;8.152;2022-08-19T00:10:22;997.5;;;27.28;43.8
54459;BME280;40368;49.350;8.152;2022-08-19T00:10:59;997.5;;;27.3;44.23
54459;BME280;40368;49.350;8.152;2022-08-19T00:12:13;997.5;;;27.26;44.11
54459;BME280;40368;49.350;8.152;2022-08-19T00:13:27;997.6;;;27.23;44.23
54459;BME280;40368;49.350;8.152;2022-08-19T00:14:05;997.6;;;27.22;44.31
54459;BME280;40368;49.350;8.152;2022-08-19T00:15:20;997.5;;;27.26;44.08
54459;BME280;40368;49.350;8.152;2022-08-19T00:15:56;997.5;;;27.24;44.31
54459;BME280;40368;49.350;8.152;2022-08-19T00:17:10;997.5;;;27.26;44.21
54459;BME280;40368;49.350;8.152;2022-08-19T00:18:24;997.5;;;27.24;44.12
54459;BME280;40368;49.350;8.152;2022-08-19T00:19:01;997.5;;;27.24;44.18
54459;BME280;40368;49.350;8.152;2022-08-19T00:20:21;997.5;;;27.23;44.27
54459;BME280;40368;49.350;8.152;2022-08-19T00:21:29;997.4;;;27.23;44.24
54459;BME280;40368;49.350;8.152;2022-08-19T00:22:06;997.5;;;27.23;43.76
54459;BME280;40368;49.350;8.152;2022-08-19T00:23:20;997.5;;;27.22;44.2
54459;BME280;40368;49.350;8.152;2022-08-19T00:23:57;997.5;;;27.22;44.19
54459;BME280;40368;49.350;8.152;2022-08-19T00:25:12;997.5;;;27.2;44.16
54459;BME280;40368;49.350;8.152;2022-08-19T00:26:26;997.5;;;27.23;43.57
54459;BME280;40368;49.350;8.152;2022-08-19T00:27:03;997.5;;;27.19;44.19
54459;BME280;40368;49.350;8.152;2022-08-19T00:28:17;997.5;;;27.28;44.05
54459;BME280;40368;49.350;8.152;2022-08-19T00:28:54;997.8;;;28.49;45.91
54459;BME280;40368;49.350;8.152;2022-08-19T00:30:08;997.6;;;27.26;44.18
54459;BME280;40368;49.350;8.152;2022-08-19T00:31:59;997.7;;;27.17;44.44
54459;BME280;40368;49.350;8.152;2022-08-19T00:33:13;997.7;;;27.16;44.1
54459;BME280;40368;49.350;8.152;2022-08-19T00:34:28;997.7;;;27.18;44.22
54459;BME280;40368;49.350;8.152;2022-08-19T00:35:05;997.7;;;27.16;44.8
54459;BME280;40368;49.350;8.152;2022-08-19T00:36:23;997.7;;;27.2;44.16
54459;BME280;40368;49.350;8.152;2022-08-19T00:37:29;997.7;;;27.19;44.47
54459;BME280;40368;49.350;8.152;2022-08-19T00:38:06;997.7;;;27.21;43.91
54459;BME280;40368;49.350;8.152;2022-08-19T00:39:20;997.7;;;27.11;44.7
54459;BME280;40368;49.350;8.152;2022-08-19T00:39:57;997.7;;;27.17;44.37
54459;BME280;40368;49.350;8.152;2022-08-19T00:41:12;997.6;;;27.1;44.66
54459;BME280;40368;49.350;8.152;2022-08-19T00:42:25;997.5;;;27.08;44.65
54459;BME280;40368;49.350;8.152;2022-08-19T00:43:07;997.6;;;27.11;44.46
54459;BME280;40368;49.350;8.152;2022-08-19T00:44:17;997.5;;;27.06;44.93
54459;BME280;40368;49.350;8.152;2022-08-19T00:44:53;997.5;;;27.07;44.99
54459;BME280;40368;49.350;8.152;2022-08-19T00:46:08;997.4;;;27.04;44.75
54459;BME280;40368;49.350;8.152;2022-08-19T00:47:22;997.3;;;27.01;44.8
54459;BME280;40368;49.350;8.152;2022-08-19T00:47:59;997.3;;;27.01;44.72
54459;BME280;40368;49.350;8.152;2022-08-19T00:49:14;997.3;;;26.98;44.96
54459;BME280;40368;49.350;8.152;2022-08-19T00:50:27;997.3;;;26.95;44.98
54459;BME280;40368;49.350;8.152;2022-08-19T00:51:04;997.3;;;26.95;44.87
54459;BME280;40368;49.350;8.152;2022-08-19T00:52:20;997.2;;;26.94;45.06
54459;BME280;40368;49.350;8.152;2022-08-19T00:52:55;997.2;;;26.94;44.83
54459;BME280;40368;49.350;8.152;2022-08-19T00:54:10;997.2;;;26.92;45.13
54459;BME280;40368;49.350;8.152;2022-08-19T00:55:25;997.3;;;26.99;44.84
54459;BME280;40368;49.350;8.152;2022-08-19T00:56:01;997.3;;;26.93;44.94
54459;BME280;40368;49.350;8.152;2022-08-19T00:57:15;997.3;;;26.99;44.82
54459;BME280;40368;49.350;8.152;2022-08-19T00:58:30;997.3;;;26.95;44.86
54459;BME280;40368;49.350;8.152;2022-08-19T00:59:06;997.3;;;26.99;44.58
54459;BME280;40368;49.350;8.152;2022-08-19T01:00:21;997.3;;;26.99;44.65
54459;BME280;40368;49.350;8.152;2022-08-19T01:00:57;997.3;;;26.95;44.61
54459;BME280;40368;49.350;8.152;2022-08-19T01:02:11;997.3;;;27.02;44.28
54459;BME280;40368;49.350;8.152;2022-08-19T01:03:26;997.3;;;27.06;44.63
54459;BME280;40368;49.350;8.152;2022-08-19T01:04:02;997.3;;;27.05;44.59
54459;BME280;40368;49.350;8.152;2022-08-19T01:05:18;997.4;;;27.08;44.48
54459;BME280;40368;49.350;8.152;2022-08-19T01:05:54;997.3;;;27.05;44.19
54459;BME280;40368;49.350;8.152;2022-08-19T01:07:08;997.3;;;27.07;44.28
54459;BME280;40368;49.350;8.152;2022-08-19T01:08:22;997.3;;;27.06;44.55
54459;BME280;40368;49.350;8.152;2022-08-19T01:09:00;997.3;;;27.06;44.2
54459;BME280;40368;49.350;8.152;2022-08-19T01:10:14;997.2;;;27.02;44.74
54459;BME280;40368;49.350;8.152;2022-08-19T01:11:27;997.2;;;27.01;44.46
54459;BME280;40368;49.350;8.152;2022-08-19T01:12:04;997.2;;;27;44.69
54459;BME280;40368;49.350;8.152;2022-08-19T01:13:20;997.2;;;27.01;44.77
54459;BME280;40368;49.350;8.152;2022-08-19T01:13:55;997.1;;;26.99;44.12
54459;BME280;40368;49.350;8.152;2022-08-19T01:15:11;997.2;;;26.97;44.79
54459;BME280;40368;49.350;8.152;2022-08-19T01:16:25;997.2;;;26.97;44.91
54459;BME280;40368;49.350;8.152;2022-08-19T01:17:01;997.1;;;26.97;44.42
54459;BME280;40368;49.350;8.152;2022-08-19T01:18:15;997.2;;;26.94;44.93
54459;BME280;40368;49.350;8.152;2022-08-19T01:19:32;997.2;;;26.96;44.39
54459;BME280;40368;49.350;8.152;2022-08-19T01:20:06;997.2;;;26.94;45.01
54459;BME280;40368;49.350;8.152;2022-08-19T01:21:21;997.2;;;27.02;44.13
54459;BME280;40368;49.350;8.152;2022-08-19T01:21:58;997.3;;;27;44.72
54459;BME280;40368;49.350;8.152;2022-08-19T01:23:11;997.2;;;27.03;44.67
54459;BME280;40368;49.350;8.152;2022-08-19T01:24:25;997.2;;;26.94;44.94
54459;BME280;40368;49.350;8.152;2022-08-19T01:25:03;997.2;;;26.99;44.61
54459;BME280;40368;49.350;8.152;2022-08-19T01:26:18;997.2;;;26.98;44.26
54459;BME280;40368;49.350;8.152;2022-08-19T01:26:54;997.2;;;26.9;44.47
54459;BME280;40368;49.350;8.152;2022-08-19T01:28:08;997.2;;;27.02;44.65
54459;BME280;40368;49.350;8.152;2022-08-19T01:29:22;997.2;;;27.04;44.59
54459;BME280;40368;49.350;8.152;2022-08-19T01:29:59;997.2;;;27.03;44.46
54459;BME280;40368;49.350;8.152;2022-08-19T01:31:16;997.3;;;27.04;44.65
54459;BME280;40368;49.350;8.152;2022-08-19T01:32:27;997.3;;;27.02;44.27
54459;BME280;40368;49.350;8.152;2022-08-19T01:33:04;997.3;;;27.02;44.27
54459;BME280;40368;49.350;8.152;2022-08-19T01:34:19;997.5;;;27.08;44.17
54459;BME280;40368;49.350;8.152;2022-08-19T01:34:56;997.4;;;27.04;44.08
54459;BME280;40368;49.350;8.152;2022-08-19T01:37:16;997.5;;;27.08;44.29
54459;BME280;40368;49.350;8.152;2022-08-19T01:37:54;997.5;;;27.1;44.52
54459;BME280;40368;49.350;8.152;2022-08-19T01:39:08;997.5;;;27.07;44.21
54459;BME280;40368;49.350;8.152;2022-08-19T01:40:22;997.5;;;27.08;44.46
54459;BME280;40368;49.350;8.152;2022-08-19T01:40:58;997.5;;;27.06;44.35
54459;BME280;40368;49.350;8.152;2022-08-19T01:42:12;997.5;;;27.09;44.41
54459;BME280;40368;49.350;8.152;2022-08-19T01:43:26;997.4;;;27.03;44.54
54459;BME280;40368;49.350;8.152;2022-08-19T01:44:04;997.5;;;27.05;44.42
54459;BME280;40368;49.350;8.152;2022-08-19T01:45:18;997.4;;;27.01;44.76
54459;BME280;40368;49.350;8.152;2022-08-19T01:45:55;997.4;;;27.02;44.66
54459;BME280;40368;49.350;8.152;2022-08-19T01:47:09;997.4;;;26.98;44.24
54459;BME280;40368;49.350;8.152;2022-08-19T01:48:23;997.4;;;26.98;44.56
54459;BME280;40368;49.350;8.152;2022-08-19T01:49:00;997.4;;;26.96;44.5
54459;BME280;40368;49.350;8.152;2022-08-19T01:50:14;997.4;;;27;44.41
54459;BME280;40368;49.350;8.152;2022-08-19T01:51:28;997.4;;;27.03;44.25
54459;BME280;40368;49.350;8.152;2022-08-19T01:52:05;997.4;;;27.02;44.81
54459;BME280;40368;49.350;8.152;2022-08-19T01:53:19;997.3;;;27.01;44.62
54459;BME280;40368;49.350;8.152;2022-08-19T01:53:56;997.4;;;27.03;44.42
54459;BME280;40368;49.350;8.152;2022-08-19T01:55:12;997.3;;;27.01;44.41
54459;BME280;40368;49.350;8.152;2022-08-19T01:56:25;997.4;;;26.99;44.38
54459;BME280;40368;49.350;8.152;2022-08-19T01:57:03;997.4;;;27.01;44.57
54459;BME280;40368;49.350;8.152;2022-08-19T01:58:17;997.4;;;26.99;44.72
54459;BME280;40368;49.350;8.152;2022-08-19T01:58:53;997.3;;;26.94;44.71
54459;BME280;40368;49.350;8.152;2022-08-19T02:00:09;997.4;;;26.98;44.73
54459;BME280;40368;49.350;8.152;2022-08-19T02:01:21;997.4;;;26.89;44.64
54459;BME280;40368;49.350;8.152;2022-08-19T02:01:58;997.4;;;26.9;44.59
54459;BME280;40368;49.350;8.152;2022-08-19T02:03:12;997.4;;;26.91;44.45
54459;BME280;40368;49.350;8.152;2022-08-19T02:04:26;997.4;;;26.95;44.71
54459;BME280;40368;49.350;8.152;2022-08-19T02:05:03;997.4;;;26.96;44.37
54459;BME280;40368;49.350;8.152;2022-08-19T02:06:17;997.4;;;26.98;44.62
54459;BME280;40368;49.350;8.152;2022-08-19T02:06:55;997.4;;;26.96;44.5
54459;BME280;40368;49.350;8.152;2022-08-19T02:08:09;997.4;;;26.98;44.7
54459;BME280;40368;49.350;8.152;2022-08-19T02:09:23;997.3;;;26.77;45.23
54459;BME280;40368;49.350;8.152;2022-08-19T02:10:00;997.5;;;26.94;44.72
54459;BME280;40368;49.350;8.152;2022-08-19T02:11:18;997.5;;;26.89;44.96
54459;BME280;40368;49.350;8.152;2022-08-19T02:12:28;997.5;;;26.95;45.02
54459;BME280;40368;49.350;8.152;2022-08-19T02:13:05;997.4;;;26.92;44.33
54459;BME280;40368;49.350;8.152;2022-08-19T02:14:19;997.5;;;26.89;44.88
54459;BME280;40368;49.350;8.152;2022-08-19T02:14:56;997.5;;;26.89;45.1
54459;BME280;40368;49.350;8.152;2022-08-19T02:16:10;997.6;;;26.89;44.67
54459;BME280;40368;49.350;8.152;2022-08-19T02:17:25;997.6;;;26.88;44.77
54459;BME280;40368;49.350;8.152;2022-08-19T02:18:02;997.6;;;26.87;44.97
54459;BME280;40368;49.350;8.152;2022-08-19T02:19:16;997.5;;;26.85;45.12
54459;BME280;40368;49.350;8.152;2022-08-19T02:19:53;997.5;;;26.89;45.05
54459;BME280;40368;49.350;8.152;2022-08-19T02:21:07;997.5;;;26.85;44.84
54459;BME280;40368;49.350;8.152;2022-08-19T02:22:21;997.5;;;26.78;45.04
54459;BME280;40368;49.350;8.152;2022-08-19T02:22:58;997.5;;;26.81;44.81
54459;BME280;40368;49.350;8.152;2022-08-19T02:24:12;997.4;;;26.73;45.22
54459;BME280;40368;49.350;8.152;2022-08-19T02:25:27;997.3;;;26.65;45.31
54459;BME280;40368;49.350;8.152;2022-08-19T02:26:03;997.4;;;26.71;44.98
54459;BME280;40368;49.350;8.152;2022-08-19T02:27:18;997.4;;;26.6;45.63
54459;BME280;40368;49.350;8.152;2022-08-19T02:27:55;997.3;;;26.62;45.29
54459;BME280;40368;49.350;8.152;2022-08-19T02:29:09;997.4;;;26.57;45.26
54459;BME280;40368;49.350;8.152;2022-08-19T02:30:23;997.2;;;26.45;45.55
54459;BME280;40368;49.350;8.152;2022-08-19T02:31:00;997.3;;;26.56;45.51
54459;BME280;40368;49.350;8.152;2022-08-19T02:32:14;997.4;;;26.56;45.65
54459;BME280;40368;49.350;8.152;2022-08-19T02:33:28;997.4;;;26.54;45.68
54459;BME280;40368;49.350;8.152;2022-08-19T02:34:05;997.4;;;26.56;45.73
54459;BME280;40368;49.350;8.152;2022-08-19T02:35:19;997.5;;;26.52;45.78
54459;BME280;40368;49.350;8.152;2022-08-19T02:35:56;997.5;;;26.53;45.71
54459;BME280;40368;49.350;8.152;2022-08-19T02:38:17;997.5;;;26.45;45.91
54459;BME280;40368;49.350;8.152;2022-08-19T02:38:54;997.5;;;26.5;45.77
54459;BME280;40368;49.350;8.152;2022-08-19T02:40:08;997.5;;;26.45;45.61
54459;BME280;40368;49.350;8.152;2022-08-19T02:41:23;997.5;;;26.54;45.71
54459;BME280;40368;49.350;8.152;2022-08-19T02:41:59;997.5;;;26.51;45.55
54459;BME280;40368;49.350;8.152;2022-08-19T02:43:13;997.5;;;26.54;45.5
54459;BME280;40368;49.350;8.152;2022-08-19T02:44:28;997.5;;;26.54;45.88
54459;BME280;40368;49.350;8.152;2022-08-19T02:45:04;997.5;;;26.55;45.62
54459;BME280;40368;49.350;8.152;2022-08-19T02:46:19;997.5;;;26.55;45.61
54459;BME280;40368;49.350;8.152;2022-08-19T02:46:55;997.5;;;26.53;45.67
54459;BME280;40368;49.350;8.152;2022-08-19T02:48:09;997.5;;;26.56;45.66
54459;BME280;40368;49.350;8.152;2022-08-19T02:49:24;997.5;;;26.63;45.37
54459;BME280;40368;49.350;8.152;2022-08-19T02:50:01;997.5;;;26.61;45.16
54459;BME280;40368;49.350;8.152;2022-08-19T02:52:29;997.5;;;26.57;45.61
54459;BME280;40368;49.350;8.152;2022-08-19T02:53:06;997.5;;;26.57;45.46
54459;BME280;40368;49.350;8.152;2022-08-19T02:54:20;997.5;;;26.62;45.05
54459;BME280;40368;49.350;8.152;2022-08-19T02:54:57;997.5;;;26.55;45.23
54459;BME280;40368;49.350;8.152;2022-08-19T02:56:12;997.6;;;26.66;45.42
54459;BME280;40368;49.350;8.152;2022-08-19T02:57:25;997.5;;;26.54;45.61
54459;BME280;40368;49.350;8.152;2022-08-19T02:58:02;997.5;;;26.6;45.12
54459;BME280;40368;49.350;8.152;2022-08-19T02:59:17;997.6;;;26.43;45.67
54459;BME280;40368;49.350;8.152;2022-08-19T02:59:54;997.6;;;26.45;46.04
54459;BME280;40368;49.350;8.152;2022-08-19T03:01:08;997.6;;;26.45;45.46
54459;BME280;40368;49.350;8.152;2022-08-19T03:02:22;997.6;;;26.4;45.63
54459;BME280;40368;49.350;8.152;2022-08-19T03:02:59;997.6;;;26.45;45.91
54459;BME280;40368;49.350;8.152;2022-08-19T03:04:14;997.6;;;26.38;46.02
54459;BME280;40368;49.350;8.152;2022-08-19T03:05:27;997.6;;;26.41;45.62
54459;BME280;40368;49.350;8.152;2022-08-19T03:06:06;997.6;;;26.38;45.79
54459;BME280;40368;49.350;8.152;2022-08-19T03:07:18;997.5;;;26.41;45.7
54459;BME280;40368;49.350;8.152;2022-08-19T03:07:55;997.6;;;26.43;45.67
54459;BME280;40368;49.350;8.152;2022-08-19T03:09:10;997.6;;;26.45;45.47
54459;BME280;40368;49.350;8.152;2022-08-19T03:10:24;997.5;;;26.42;45.47
54459;BME280;40368;49.350;8.152;2022-08-19T03:11:01;997.5;;;26.46;45.8
54459;BME280;40368;49.350;8.152;2022-08-19T03:12:15;997.6;;;26.41;45.84
54459;BME280;40368;49.350;8.152;2022-08-19T03:13:29;997.6;;;26.41;45.85
54459;BME280;40368;49.350;8.152;2022-08-19T03:14:07;997.5;;;26.39;45.9
54459;BME280;40368;49.350;8.152;2022-08-19T03:15:20;997.6;;;26.39;45.75
54459;BME280;40368;49.350;8.152;2022-08-19T03:15:57;997.5;;;26.4;46.34
54459;BME280;40368;49.350;8.152;2022-08-19T03:17:11;997.6;;;26.4;45.86
54459;BME280;40368;49.350;8.152;2022-08-19T03:18:26;997.6;;;26.44;45.87
54459;BME280;40368;49.350;8.152;2022-08-19T03:19:03;997.6;;;26.4;45.63
54459;BME280;40368;49.350;8.152;2022-08-19T03:20:17;997.6;;;26.49;45.77
54459;BME280;40368;49.350;8.152;2022-08-19T03:20:54;997.6;;;26.47;45.6
54459;BME280;40368;49.350;8.152;2022-08-19T03:22:08;997.6;;;26.5;45.66
54459;BME280;40368;49.350;8.152;2022-08-19T03:23:22;997.6;;;26.43;45.92
54459;BME280;40368;49.350;8.152;2022-08-19T03:24:00;997.6;;;26.5;45.61
54459;BME280;40368;49.350;8.152;2022-08-19T03:25:13;997.6;;;26.36;45.85
54459;BME280;40368;49.350;8.152;2022-08-19T03:26:28;997.6;;;26.36;46
54459;BME280;40368;49.350;8.152;2022-08-19T03:27:04;997.6;;;26.35;45.9
54459;BME280;40368;49.350;8.152;2022-08-19T03:28:19;997.7;;;26.37;45.58
54459;BME280;40368;49.350;8.152;2022-08-19T03:28:56;997.6;;;26.36;45.96
54459;BME280;40368;49.350;8.152;2022-08-19T03:30:10;997.7;;;26.38;45.99
54459;BME280;40368;49.350;8.152;2022-08-19T03:31:25;997.7;;;26.41;45.78
54459;BME280;40368;49.350;8.152;2022-08-19T03:32:03;997.7;;;26.39;45.4
54459;BME280;40368;49.350;8.152;2022-08-19T03:33:15;997.7;;;26.4;45.79
54459;BME280;40368;49.350;8.152;2022-08-19T03:34:30;997.7;;;26.33;46.2
54459;BME280;40368;49.350;8.152;2022-08-19T03:35:06;997.7;;;26.34;45.68
54459;BME280;40368;49.350;8.152;2022-08-19T03:36:21;997.7;;;26.28;46.13
54459;BME280;40368;49.350;8.152;2022-08-19T03:38:03;997.7;;;26.3;45.99
54459;BME280;40368;49.350;8.152;2022-08-19T03:39:18;997.7;;;26.32;46.04
54459;BME280;40368;49.350;8.152;2022-08-19T03:39:55;997.7;;;26.31;45.86
54459;BME280;40368;49.350;8.152;2022-08-19T03:41:10;997.7;;;26.34;45.97
54459;BME280;40368;49.350;8.152;2022-08-19T03:42:23;997.4;;;26.15;45.93
54459;BME280;40368;49.350;8.152;2022-08-19T03:43:00;997.6;;;26.32;46.26
54459;BME280;40368;49.350;8.152;2022-08-19T03:44:15;997.7;;;26.3;46.21
54459;BME280;40368;49.350;8.152;2022-08-19T03:45:28;997.7;;;26.29;45.78
54459;BME280;40368;49.350;8.152;2022-08-19T03:46:06;997.7;;;26.27;46.06
54459;BME280;40368;49.350;8.152;2022-08-19T03:47:19;997.7;;;26.34;45.69
54459;BME280;40368;49.350;8.152;2022-08-19T03:47:56;997.7;;;26.32;45.69
54459;BME280;40368;49.350;8.152;2022-08-19T03:49:10;997.7;;;26.33;45.89
54459;BME280;40368;49.350;8.152;2022-08-19T03:50:25;997.7;;;26.26;46.1
54459;BME280;40368;49.350;8.152;2022-08-19T03:51:02;997.8;;;26.28;46.1
54459;BME280;40368;49.350;8.152;2022-08-19T03:52:16;997.7;;;26.27;46
54459;BME280;40368;49.350;8.152;2022-08-19T03:53:31;997.7;;;26.24;45.78
54459;BME280;40368;49.350;8.152;2022-08-19T03:54:08;997.7;;;26.24;45.94
54459;BME280;40368;49.350;8.152;2022-08-19T03:55:21;997.7;;;26.25;45.93
54459;BME280;40368;49.350;8.152;2022-08-19T03:55:59;997.7;;;26.23;45.87
54459;BME280;40368;49.350;8.152;2022-08-19T03:57:12;997.7;;;26.26;46
54459;BME280;40368;49.350;8.152;2022-08-19T03:58:27;997.7;;;26.27;45.95
54459;BME280;40368;49.350;8.152;2022-08-19T03:59:04;997.7;;;26.28;45.79
54459;BME280;40368;49.350;8.152;2022-08-19T04:00:18;997.6;;;26.19;46.47
54459;BME280;40368;49.350;8.152;2022-08-19T04:00:55;997.6;;;26.23;45.75
54459;BME280;40368;49.350;8.152;2022-08-19T04:02:10;997.6;;;26.16;46.05
54459;BME280;40368;49.350;8.152;2022-08-19T04:03:23;997.4;;;25.99;46.11
54459;BME280;40368;49.350;8.152;2022-08-19T04:04:00;997.6;;;26.16;46.13
54459;BME280;40368;49.350;8.152;2022-08-19T04:05:14;997.6;;;26.12;45.74
54459;BME280;40368;49.350;8.152;2022-08-19T04:06:29;997.5;;;26.09;46.35
54459;BME280;40368;49.350;8.152;2022-08-19T04:07:05;997.6;;;26.13;46.38
54459;BME280;40368;49.350;8.152;2022-08-19T04:08:19;997.5;;;26.05;46.46
54459;BME280;40368;49.350;8.152;2022-08-19T04:08:57;997.5;;;26.09;46.41
54459;BME280;40368;49.350;8.152;2022-08-19T04:10:11;997.5;;;26.03;46.44
54459;BME280;40368;49.350;8.152;2022-08-19T04:11:26;997.5;;;26.11;45.98
54459;BME280;40368;49.350;8.152;2022-08-19T04:12:02;997.5;;;26.02;46.12
54459;BME280;40368;49.350;8.152;2022-08-19T04:13:17;997.5;;;26.08;46.37
54459;BME280;40368;49.350;8.152;2022-08-19T04:13:53;997.5;;;26.11;46.39
54459;BME280;40368;49.350;8.152;2022-08-19T04:15:07;997.5;;;26.04;46.59
54459;BME280;40368;49.350;8.152;2022-08-19T04:16:24;997.6;;;26;46.53
54459;BME280;40368;49.350;8.152;2022-08-19T04:16:59;997.5;;;26.01;46.42
54459;BME280;40368;49.350;8.152;2022-08-19T04:18:13;997.5;;;25.98;46.8
54459;BME280;40368;49.350;8.152;2022-08-19T04:19:29;997.6;;;25.93;47.12
54459;BME280;40368;49.350;8.152;2022-08-19T04:20:04;997.6;;;25.94;46.86
54459;BME280;40368;49.350;8.152;2022-08-19T04:21:19;997.5;;;25.9;47.03
54459;BME280;40368;49.350;8.152;2022-08-19T04:21:55;997.5;;;25.91;46.99
54459;BME280;40368;49.350;8.152;2022-08-19T04:23:09;997.5;;;25.91;46.77
54459;BME280;40368;49.350;8.152;2022-08-19T04:24:23;997.3;;;25.83;46.94
54459;BME280;40368;49.350;8.152;2022-08-19T04:25:00;997.5;;;25.92;46.87
54459;BME280;40368;49.350;8.152;2022-08-19T04:26:14;997.5;;;25.93;46.88
54459;BME280;40368;49.350;8.152;2022-08-19T04:27:28;997.5;;;25.9;47.16
54459;BME280;40368;49.350;8.152;2022-08-19T04:28:06;997.5;;;25.91;47.07
54459;BME280;40368;49.350;8.152;2022-08-19T04:29:20;997.6;;;25.99;46.98
54459;BME280;40368;49.350;8.152;2022-08-19T04:29:57;997.6;;;25.93;46.8
54459;BME280;40368;49.350;8.152;2022-08-19T04:31:12;997.6;;;25.99;46.56
54459;BME280;40368;49.350;8.152;2022-08-19T04:32:25;997.6;;;26.02;46.73
54459;BME280;40368;49.350;8.152;2022-08-19T04:33:02;997.6;;;26.02;46.61
54459;BME280;40368;49.350;8.152;2022-08-19T04:34:17;997.6;;;26.05;46.79
54459;BME280;40368;49.350;8.152;2022-08-19T04:35:34;997.6;;;26.04;46.31
54459;BME280;40368;49.350;8.152;2022-08-19T04:36:07;997.5;;;26.03;46.67
54459;BME280;40368;49.350;8.152;2022-08-19T04:37:21;997.6;;;26.06;46.52
54459;BME280;40368;49.350;8.152;2022-08-19T04:38:27;997.6;;;26.07;46.23
54459;BME280;40368;49.350;8.152;2022-08-19T04:39:06;997.6;;;26.06;46.75
54459;BME280;40368;49.350;8.152;2022-08-19T04:40:18;997.6;;;26.07;46.64
54459;BME280;40368;49.350;8.152;2022-08-19T04:40:55;997.6;;;26.08;46.66
54459;BME280;40368;49.350;8.152;2022-08-19T04:42:10;997.6;;;26.03;46.73
54459;BME280;40368;49.350;8.152;2022-08-19T04:43:24;997.6;;;25.99;47.05
54459;BME280;40368;49.350;8.152;2022-08-19T04:44:01;997.6;;;26.03;46.68
54459;BME280;40368;49.350;8.152;2022-08-19T04:45:15;997.5;;;26;46.83
54459;BME280;40368;49.350;8.152;2022-08-19T04:46:29;997.6;;;26.04;46.72
54459;BME280;40368;49.350;8.152;2022-08-19T04:47:06;997.6;;;26.01;46.99
54459;BME280;40368;49.350;8.152;2022-08-19T04:48:20;997.5;;;26.08;46.67
54459;BME280;40368;49.350;8.152;2022-08-19T04:48:58;997.5;;;26.09;46.39
54459;BME280;40368;49.350;8.152;2022-08-19T04:50:11;997.5;;;26.09;46.79
54459;BME280;40368;49.350;8.152;2022-08-19T04:51:26;997.5;;;26.12;45.95
54459;BME280;40368;49.350;8.152;2022-08-19T04:52:03;997.5;;;26.07;46.15
54459;BME280;40368;49.350;8.152;2022-08-19T04:53:17;997.5;;;26.18;46.11
54459;BME280;40368;49.350;8.152;2022-08-19T04:54:31;997.6;;;26.19;45.85
54459;BME280;40368;49.350;8.152;2022-08-19T04:55:08;997.5;;;26.2;46.04
54459;BME280;40368;49.350;8.152;2022-08-19T04:56:22;997.6;;;26.14;45.85
54459;BME280;40368;49.350;8.152;2022-08-19T04:56:59;997.6;;;26.15;46.18
54459;BME280;40368;49.350;8.152;2022-08-19T04:58:13;997.6;;;26.16;46.02
54459;BME280;40368;49.350;8.152;2022-08-19T04:59:27;997.7;;;26.16;45.9
54459;BME280;40368;49.350;8.152;2022-08-19T05:00:05;997.7;;;26.13;46.15
54459;BME280;40368;49.350;8.152;2022-08-19T05:01:20;997.8;;;26.17;46.17
54459;BME280;40368;49.350;8.152;2022-08-19T05:01:56;997.7;;;26.19;45.63
54459;BME280;40368;49.350;8.152;2022-08-19T05:03:10;997.8;;;26.15;46.02
54459;BME280;40368;49.350;8.152;2022-08-19T05:04:24;997.8;;;26.11;46.41
54459;BME280;40368;49.350;8.152;2022-08-19T05:05:02;997.9;;;26.12;46.44
54459;BME280;40368;49.350;8.152;2022-08-19T05:06:16;997.9;;;26.15;46.03
54459;BME280;40368;49.350;8.152;2022-08-19T05:07:29;997.8;;;26.18;46.09
54459;BME280;40368;49.350;8.152;2022-08-19T05:08:06;997.9;;;26.17;45.78
54459;BME280;40368;49.350;8.152;2022-08-19T05:09:20;997.8;;;26.22;45.68
54459;BME280;40368;49.350;8.152;2022-08-19T05:09:57;997.8;;;26.19;46.27
54459;BME280;40368;49.350;8.152;2022-08-19T05:11:12;997.8;;;26.21;45.98
54459;BME280;40368;49.350;8.152;2022-08-19T05:12:26;997.7;;;26.07;46.34
54459;BME280;40368;49.350;8.152;2022-08-19T05:13:03;997.8;;;26.15;46.4
54459;BME280;40368;49.350;8.152;2022-08-19T05:14:17;997.7;;;26.06;46.29
54459;BME280;40368;49.350;8.152;2022-08-19T05:14:54;997.7;;;26.08;46.19
54459;BME280;40368;49.350;8.152;2022-08-19T05:16:08;997.7;;;25.99;46.54
54459;BME280;40368;49.350;8.152;2022-08-19T05:17:22;997.7;;;25.9;46.92
54459;BME280;40368;49.350;8.152;2022-08-19T05:17:59;997.7;;;25.93;46.81
54459;BME280;40368;49.350;8.152;2022-08-19T05:19:13;997.7;;;25.85;47.21
54459;BME280;40368;49.350;8.152;2022-08-19T05:20:27;997.8;;;25.82;47.09
54459;BME280;40368;49.350;8.152;2022-08-19T05:21:05;997.7;;;25.83;47.01
54459;BME280;40368;49.350;8.152;2022-08-19T05:22:19;997.9;;;25.88;46.6
54459;BME280;40368;49.350;8.152;2022-08-19T05:22:56;997.8;;;25.83;46.87
54459;BME280;40368;49.350;8.152;2022-08-19T05:24:10;997.9;;;25.89;46.93
54459;BME280;40368;49.350;8.152;2022-08-19T05:25:24;997.9;;;25.93;46.88
54459;BME280;40368;49.350;8.152;2022-08-19T05:26:01;997.9;;;25.89;46.87
54459;BME280;40368;49.350;8.152;2022-08-19T05:27:15;997.9;;;25.95;46.88
54459;BME280;40368;49.350;8.152;2022-08-19T05:28:29;997.9;;;25.91;46.95
54459;BME280;40368;49.350;8.152;2022-08-19T05:29:07;997.9;;;25.92;46.97
54459;BME280;40368;49.350;8.152;2022-08-19T05:30:20;997.8;;;25.93;46.49
54459;BME280;40368;49.350;8.152;2022-08-19T05:30:57;997.8;;;25.92;46.54
54459;BME280;40368;49.350;8.152;2022-08-19T05:32:12;997.9;;;25.98;46.78
54459;BME280;40368;49.350;8.152;2022-08-19T05:33:26;997.8;;;25.99;46.79
54459;BME280;40368;49.350;8.152;2022-08-19T05:34:03;997.8;;;25.97;46.22
54459;BME280;40368;49.350;8.152;2022-08-19T05:35:17;997.9;;;25.96;46.59
54459;BME280;40368;49.350;8.152;2022-08-19T05:35:54;997.8;;;25.98;46.76